Time;durP1;ratioP1;P1;durP2;ratioP2;P2;SDS_P1;SDS_P2;PMS_P1;PMS_P2;Temp;Humidity;BMP_temperature;BMP_pressure;BME280_temperature;BME280_humidity;BME280_pressure;Samples;Min_cycle;Max_cycle;Signal;HPM_P1;HPM_P2
2023/01/06 00:01:00;;;;;;;;;0.00;0.00;;;;;;;;5061906;28;61869;-75
2023/01/06 00:03:26;;;;;;;;;1.00;0.00;;;;;;;;5062296;28;61665;-76
2023/01/06 00:05:55;;;;;;;;;0.25;0.25;;;;;;;;5061481;28;62629;-75
2023/01/06 00:08:20;;;;;;;;;0.00;0.00;;;;;;;;5061733;28;61779;-75
2023/01/06 00:10:46;;;;;;;;;0.00;0.00;;;;;;;;5061999;28;61824;-76
2023/01/06 00:13:11;;;;;;;;;0.00;0.00;;;;;;;;5070631;27;61949;-76
2023/01/06 00:15:36;;;;;;;;;0.00;0.00;;;;;;;;5081498;28;62699;-75
2023/01/06 00:18:01;;;;;;;;;0.00;0.00;;;;;;;;5080810;28;61851;-76
2023/01/06 00:20:27;;;;;;;;;0.00;0.00;;;;;;;;5080754;28;61907;-76
2023/01/06 00:22:53;;;;;;;;;1.00;0.00;;;;;;;;5082107;27;61600;-76
2023/01/06 00:25:18;;;;;;;;;0.00;0.00;;;;;;;;5081519;28;61687;-76
2023/01/06 00:27:43;;;;;;;;;0.00;0.00;;;;;;;;5081489;27;61892;-76
2023/01/06 00:30:09;;;;;;;;;0.50;0.00;;;;;;;;5061502;28;62056;-76
2023/01/06 00:32:34;;;;;;;;;0.00;0.00;;;;;;;;5062320;28;61776;-75
2023/01/06 00:35:00;;;;;;;;;0.00;0.00;;;;;;;;5061015;28;62655;-75
2023/01/06 00:37:25;;;;;;;;;1.00;0.00;;;;;;;;5064373;28;61834;-76
2023/01/06 00:39:50;;;;;;;;;0.00;0.00;;;;;;;;5064094;28;61885;-76
2023/01/06 00:42:16;;;;;;;;;0.00;0.00;;;;;;;;5065153;28;61637;-76
2023/01/06 00:44:41;;;;;;;;;0.50;0.00;;;;;;;;5064382;27;62541;-76
2023/01/06 00:47:07;;;;;;;;;3.00;0.00;;;;;;;;5065191;28;61758;-76
2023/01/06 00:49:33;;;;;;;;;0.00;0.00;;;;;;;;5065358;28;61748;-76
2023/01/06 00:51:58;;;;;;;;;0.00;0.00;;;;;;;;5085552;28;62206;-76
2023/01/06 00:54:24;;;;;;;;;0.00;0.00;;;;;;;;5084822;27;62755;-76
2023/01/06 00:56:50;;;;;;;;;0.00;0.00;;;;;;;;5085377;27;61745;-76
2023/01/06 00:59:16;;;;;;;;;1.00;0.00;;;;;;;;5083822;28;61895;-76
2023/01/06 01:01:42;;;;;;;;;0.50;0.00;;;;;;;;5084098;27;61928;-76
2023/01/06 01:04:08;;;;;;;;;1.00;0.00;;;;;;;;5084185;27;61921;-76
2023/01/06 01:06:33;;;;;;;;;0.00;0.00;;;;;;;;5085302;27;61931;-75
2023/01/06 01:08:59;;;;;;;;;0.00;0.00;;;;;;;;5084811;27;62074;-75
2023/01/06 01:14:09;;;;;;;;;0.00;0.00;;;;;;;;5084026;28;62385;-76
2023/01/06 01:16:35;;;;;;;;;0.00;0.00;;;;;;;;5085116;27;61663;-76
2023/01/06 01:19:00;;;;;;;;;0.00;0.00;;;;;;;;5083542;28;61800;-76
2023/01/06 01:21:25;;;;;;;;;0.00;0.00;;;;;;;;5083768;28;62210;-76
2023/01/06 01:23:51;;;;;;;;;0.00;0.00;;;;;;;;5084264;28;61826;-76
2023/01/06 01:26:16;;;;;;;;;1.00;0.00;;;;;;;;5084807;28;61929;-76
2023/01/06 01:28:41;;;;;;;;;0.00;0.00;;;;;;;;5083285;28;61788;-76
2023/01/06 01:31:07;;;;;;;;;0.00;0.00;;;;;;;;5083566;28;62086;-76
2023/01/06 01:33:32;;;;;;;;;0.50;0.00;;;;;;;;5082857;28;64863;-76
2023/01/06 01:36:04;;;;;;;;;0.00;0.00;;;;;;;;5082786;28;61726;-76
2023/01/06 01:38:29;;;;;;;;;0.00;0.00;;;;;;;;5084734;28;61784;-76
2023/01/06 01:40:54;;;;;;;;;0.00;0.00;;;;;;;;5117579;27;62097;-76
2023/01/06 01:43:19;;;;;;;;;0.25;0.00;;;;;;;;5083722;28;61889;-76
2023/01/06 01:45:46;;;;;;;;;0.00;0.00;;;;;;;;5084572;27;61784;-76
2023/01/06 01:48:23;;;;;;;;;0.00;0.00;;;;;;;;5084170;27;61967;-76
2023/01/06 01:50:50;;;;;;;;;0.00;0.00;;;;;;;;5081533;28;62004;-76
2023/01/06 01:53:25;;;;;;;;;0.00;0.00;;;;;;;;5083615;27;61919;-76
2023/01/06 01:55:51;;;;;;;;;0.00;0.00;;;;;;;;5084475;27;61781;-76
2023/01/06 01:58:19;;;;;;;;;0.00;0.00;;;;;;;;5084075;27;61819;-76
2023/01/06 02:00:45;;;;;;;;;0.75;0.75;;;;;;;;5083385;28;61802;-76
2023/01/06 02:03:11;;;;;;;;;0.75;0.00;;;;;;;;5083532;28;62698;-76
2023/01/06 02:05:38;;;;;;;;;0.00;0.00;;;;;;;;5084191;27;62242;-76
2023/01/06 02:08:06;;;;;;;;;0.00;0.00;;;;;;;;5083157;27;61860;-76
2023/01/06 02:10:32;;;;;;;;;0.00;0.00;;;;;;;;5084539;27;61984;-76
2023/01/06 02:12:58;;;;;;;;;0.00;0.00;;;;;;;;5083317;28;61688;-76
2023/01/06 02:15:25;;;;;;;;;0.00;0.00;;;;;;;;5083940;27;61803;-76
2023/01/06 02:17:53;;;;;;;;;2.00;0.00;;;;;;;;5082735;28;62079;-76
2023/01/06 02:20:24;;;;;;;;;1.00;0.00;;;;;;;;5083775;27;62162;-76
2023/01/06 02:23:05;;;;;;;;;0.00;0.00;;;;;;;;5083197;27;61859;-76
2023/01/06 02:25:33;;;;;;;;;0.00;0.00;;;;;;;;5104510;27;61838;-76
2023/01/06 02:28:17;;;;;;;;;0.00;0.00;;;;;;;;5063338;28;61826;-76
2023/01/06 02:31:01;;;;;;;;;0.00;0.00;;;;;;;;5063837;28;61854;-76
2023/01/06 02:33:30;;;;;;;;;0.00;0.00;;;;;;;;5062792;28;61915;-76
2023/01/06 02:36:12;;;;;;;;;0.00;0.00;;;;;;;;5063690;28;61779;-76
2023/01/06 02:38:56;;;;;;;;;0.00;0.00;;;;;;;;5063204;28;61846;-76
2023/01/06 02:41:40;;;;;;;;;0.00;0.00;;;;;;;;5067699;27;62121;-76
2023/01/06 02:44:11;;;;;;;;;0.00;0.00;;;;;;;;5082897;27;61837;-76
2023/01/06 02:46:43;;;;;;;;;0.00;0.00;;;;;;;;5082243;28;61745;-76
2023/01/06 02:49:17;;;;;;;;;0.00;0.00;;;;;;;;5083262;28;61824;-76
2023/01/06 02:52:18;;;;;;;;;0.00;0.00;;;;;;;;5082012;28;61862;-76
2023/01/06 02:54:50;;;;;;;;;0.00;0.00;;;;;;;;5043193;28;63855;-77
2023/01/06 02:57:19;;;;;;;;;0.00;0.00;;;;;;;;5059425;28;61885;-76
2023/01/06 02:59:59;;;;;;;;;0.00;0.00;;;;;;;;5042870;28;61796;-76
2023/01/06 03:02:24;;;;;;;;;0.00;0.00;;;;;;;;5043501;28;61895;-76
2023/01/06 03:04:50;;;;;;;;;0.00;0.00;;;;;;;;5059858;28;62153;-76
2023/01/06 03:07:17;;;;;;;;;0.00;0.00;;;;;;;;5060448;28;61925;-76
2023/01/06 03:09:43;;;;;;;;;0.00;0.00;;;;;;;;5060037;28;61914;-76
2023/01/06 03:12:18;;;;;;;;;0.00;0.00;;;;;;;;5060618;28;61775;-76
2023/01/06 03:14:48;;;;;;;;;0.00;0.00;;;;;;;;5058852;28;61957;-76
2023/01/06 03:17:14;;;;;;;;;0.00;0.00;;;;;;;;5060472;28;61928;-76
2023/01/06 03:19:39;;;;;;;;;0.00;0.00;;;;;;;;5076683;28;61899;-76
2023/01/06 03:22:06;;;;;;;;;0.00;0.00;;;;;;;;5060457;28;62038;-76
2023/01/06 03:24:33;;;;;;;;;1.00;0.00;;;;;;;;5059277;28;62313;-76
2023/01/06 03:26:59;;;;;;;;;0.75;0.00;;;;;;;;5060087;28;62120;-77
2023/01/06 03:29:24;;;;;;;;;0.25;0.00;;;;;;;;5105489;27;61952;-76
2023/01/06 03:32:08;;;;;;;;;0.00;0.00;;;;;;;;5083275;28;61835;-76
2023/01/06 03:34:48;;;;;;;;;0.00;0.00;;;;;;;;5082247;27;61825;-76
2023/01/06 03:37:17;;;;;;;;;0.00;0.00;;;;;;;;5081348;28;61962;-76
2023/01/06 03:39:54;;;;;;;;;0.50;0.00;;;;;;;;5082436;27;61731;-76
2023/01/06 03:45:38;;;;;;;;;0.00;0.00;;;;;;;;5081186;28;62354;-76
2023/01/06 03:48:22;;;;;;;;;0.00;0.00;;;;;;;;5082585;27;61704;-76
2023/01/06 03:51:03;;;;;;;;;0.00;0.00;;;;;;;;5080762;28;62033;-76
2023/01/06 03:53:44;;;;;;;;;0.00;0.00;;;;;;;;5082156;28;61727;-76
2023/01/06 03:56:09;;;;;;;;;0.00;0.00;;;;;;;;5081940;28;61799;-76
2023/01/06 03:58:36;;;;;;;;;0.00;0.00;;;;;;;;5082423;28;61750;-76
2023/01/06 04:01:02;;;;;;;;;0.00;0.00;;;;;;;;5082643;28;61864;-76
2023/01/06 04:03:27;;;;;;;;;0.00;0.00;;;;;;;;5070067;27;61736;-76
2023/01/06 04:05:53;;;;;;;;;0.00;0.00;;;;;;;;5061745;28;62086;-76
2023/01/06 04:08:18;;;;;;;;;0.75;0.00;;;;;;;;5060210;28;62008;-76
2023/01/06 04:10:44;;;;;;;;;0.00;0.00;;;;;;;;5096335;27;61779;-76
2023/01/06 04:13:09;;;;;;;;;0.00;0.00;;;;;;;;5066015;28;61783;-76
2023/01/06 04:15:34;;;;;;;;;0.00;0.00;;;;;;;;5064893;28;62639;-76
2023/01/06 04:17:59;;;;;;;;;0.00;0.00;;;;;;;;5065236;27;61874;-76
2023/01/06 04:20:26;;;;;;;;;0.00;0.00;;;;;;;;5065426;28;61988;-76
2023/01/06 04:22:53;;;;;;;;;0.00;0.00;;;;;;;;5065413;28;62364;-76
2023/01/06 04:25:18;;;;;;;;;0.25;0.00;;;;;;;;5063771;28;64568;-76
2023/01/06 04:27:43;;;;;;;;;0.00;0.00;;;;;;;;5097800;27;61748;-76
2023/01/06 04:30:09;;;;;;;;;0.00;0.00;;;;;;;;5065618;28;61771;-76
2023/01/06 04:32:34;;;;;;;;;0.00;0.00;;;;;;;;5065289;28;62001;-76
2023/01/06 04:34:59;;;;;;;;;0.00;0.00;;;;;;;;5064666;27;61764;-76
2023/01/06 04:37:25;;;;;;;;;1.00;0.00;;;;;;;;5065035;28;62216;-76
2023/01/06 04:39:50;;;;;;;;;0.00;0.00;;;;;;;;5080805;28;61848;-76
2023/01/06 04:42:15;;;;;;;;;0.00;0.00;;;;;;;;5098012;27;61894;-76
2023/01/06 04:44:41;;;;;;;;;0.00;0.00;;;;;;;;5064545;28;61971;-76
2023/01/06 04:47:07;;;;;;;;;0.00;0.00;;;;;;;;5063897;28;61710;-76
2023/01/06 04:49:32;;;;;;;;;0.00;0.00;;;;;;;;5072475;27;61967;-76
2023/01/06 04:51:57;;;;;;;;;0.25;0.00;;;;;;;;5081882;28;61904;-76
2023/01/06 04:54:23;;;;;;;;;0.00;0.00;;;;;;;;5083406;28;64890;-76
2023/01/06 04:56:48;;;;;;;;;0.00;0.00;;;;;;;;5085205;28;61774;-76
2023/01/06 04:59:13;;;;;;;;;0.00;0.00;;;;;;;;5085597;28;62046;-76
2023/01/06 05:01:38;;;;;;;;;0.00;0.00;;;;;;;;5083970;28;61901;-76
2023/01/06 05:04:06;;;;;;;;;0.00;0.00;;;;;;;;5084631;28;63020;-76
2023/01/06 05:06:31;;;;;;;;;0.00;0.00;;;;;;;;5084392;28;61858;-76
2023/01/06 05:08:56;;;;;;;;;0.00;0.00;;;;;;;;5084683;27;61862;-76
2023/01/06 05:11:23;;;;;;;;;0.00;0.00;;;;;;;;5085433;28;62086;-76
2023/01/06 05:13:49;;;;;;;;;0.00;0.00;;;;;;;;5083104;28;63815;-76
2023/01/06 05:16:19;;;;;;;;;0.00;0.00;;;;;;;;5084909;27;61897;-76
2023/01/06 05:18:44;;;;;;;;;0.00;0.00;;;;;;;;5084655;27;61826;-76
2023/01/06 05:21:10;;;;;;;;;0.00;0.00;;;;;;;;5083824;28;61814;-76
2023/01/06 05:23:36;;;;;;;;;0.00;0.00;;;;;;;;5081517;28;64180;-76
2023/01/06 05:26:01;;;;;;;;;0.00;0.00;;;;;;;;5084707;28;62036;-76
2023/01/06 05:28:27;;;;;;;;;0.00;0.00;;;;;;;;5085059;28;61871;-76
2023/01/06 05:30:57;;;;;;;;;1.00;0.00;;;;;;;;5084808;27;61749;-76
2023/01/06 05:33:22;;;;;;;;;0.00;0.00;;;;;;;;5083909;27;61687;-76
2023/01/06 05:35:47;;;;;;;;;0.00;0.00;;;;;;;;5084406;28;61705;-76
2023/01/06 05:38:13;;;;;;;;;0.00;0.00;;;;;;;;5083244;28;61913;-76
2023/01/06 05:40:38;;;;;;;;;0.00;0.00;;;;;;;;5064613;28;61766;-76
2023/01/06 05:43:03;;;;;;;;;0.00;0.00;;;;;;;;5096123;27;64866;-76
2023/01/06 05:45:28;;;;;;;;;0.00;0.00;;;;;;;;5064108;28;61819;-76
2023/01/06 05:47:54;;;;;;;;;0.00;0.00;;;;;;;;5064346;28;61790;-76
2023/01/06 05:50:19;;;;;;;;;0.00;0.00;;;;;;;;5070900;28;61794;-76
2023/01/06 05:52:44;;;;;;;;;0.50;0.00;;;;;;;;5083943;28;62438;-76
2023/01/06 05:55:10;;;;;;;;;0.00;0.00;;;;;;;;5082969;28;61828;-76
2023/01/06 05:57:35;;;;;;;;;0.00;0.00;;;;;;;;5082194;27;61976;-76
2023/01/06 06:00:01;;;;;;;;;0.00;0.00;;;;;;;;5084535;27;62130;-76
2023/01/06 06:02:27;;;;;;;;;1.50;0.00;;;;;;;;5083848;28;62126;-76
2023/01/06 06:04:52;;;;;;;;;0.50;0.00;;;;;;;;5083773;27;61925;-76
2023/01/06 06:07:17;;;;;;;;;0.00;0.00;;;;;;;;5084439;28;62027;-76
2023/01/06 06:09:42;;;;;;;;;0.00;0.00;;;;;;;;5084254;28;61879;-77
2023/01/06 06:12:08;;;;;;;;;0.00;0.00;;;;;;;;5082133;28;64592;-77
2023/01/06 06:14:33;;;;;;;;;1.00;0.00;;;;;;;;5070383;27;62052;-76
2023/01/06 06:16:58;;;;;;;;;3.00;0.00;;;;;;;;5063787;28;62378;-82
2023/01/06 06:19:24;;;;;;;;;0.00;0.00;;;;;;;;5062597;28;62123;-76
2023/01/06 06:21:49;;;;;;;;;0.00;0.00;;;;;;;;5063546;28;63039;-76
2023/01/06 06:24:14;;;;;;;;;1.00;0.00;;;;;;;;5061865;28;62028;-77
2023/01/06 06:26:40;;;;;;;;;0.00;0.00;;;;;;;;5063438;28;61998;-77
2023/01/06 06:29:06;;;;;;;;;0.00;0.00;;;;;;;;5064470;27;62168;-76
2023/01/06 06:31:31;;;;;;;;;0.00;0.00;;;;;;;;5083309;28;61860;-76
2023/01/06 06:33:59;;;;;;;;;0.00;0.00;;;;;;;;5081067;28;61856;-76
2023/01/06 06:36:24;;;;;;;;;1.00;0.00;;;;;;;;5083802;27;61856;-76
2023/01/06 06:38:50;;;;;;;;;0.00;0.00;;;;;;;;5083826;27;61837;-77
2023/01/06 06:41:16;;;;;;;;;0.00;0.00;;;;;;;;5082939;27;62792;-78
2023/01/06 06:43:42;;;;;;;;;0.00;0.00;;;;;;;;5087387;27;61847;-77
2023/01/06 06:46:08;;;;;;;;;0.00;0.00;;;;;;;;5094208;27;61958;-77
2023/01/06 06:48:33;;;;;;;;;1.00;0.00;;;;;;;;5094963;27;61657;-78
2023/01/06 06:51:00;;;;;;;;;0.00;0.00;;;;;;;;5092064;27;61695;-78
2023/01/06 06:53:26;;;;;;;;;0.00;0.00;;;;;;;;5082372;28;61651;-79
2023/01/06 06:55:51;;;;;;;;;1.50;0.00;;;;;;;;5082785;28;61663;-79
2023/01/06 06:58:16;;;;;;;;;0.00;0.00;;;;;;;;5081506;28;61799;-79
2023/01/06 07:00:41;;;;;;;;;0.00;0.00;;;;;;;;5081037;28;64743;-79
2023/01/06 07:03:07;;;;;;;;;2.00;1.00;;;;;;;;5081834;27;61662;-78
2023/01/06 07:05:32;;;;;;;;;0.25;0.25;;;;;;;;5081918;28;61705;-79
2023/01/06 07:07:57;;;;;;;;;0.00;0.00;;;;;;;;5083290;28;62077;-78
2023/01/06 07:10:22;;;;;;;;;0.50;0.00;;;;;;;;5082452;28;62689;-78
2023/01/06 07:12:48;;;;;;;;;0.00;0.00;;;;;;;;5081511;28;62003;-78
2023/01/06 07:15:13;;;;;;;;;0.00;0.00;;;;;;;;5083262;27;62025;-78
2023/01/06 07:17:40;;;;;;;;;1.00;0.00;;;;;;;;5081744;28;62169;-78
2023/01/06 07:20:06;;;;;;;;;1.00;0.00;;;;;;;;5079856;27;63815;-78
2023/01/06 07:22:31;;;;;;;;;0.00;0.00;;;;;;;;5081559;28;61860;-78
2023/01/06 07:24:56;;;;;;;;;1.25;0.00;;;;;;;;5081520;28;61932;-78
2023/01/06 07:27:21;;;;;;;;;0.00;0.00;;;;;;;;5083560;28;61719;-77
2023/01/06 07:29:46;;;;;;;;;0.75;0.00;;;;;;;;5078317;27;62627;-78
2023/01/06 07:32:12;;;;;;;;;0.00;0.00;;;;;;;;5084985;28;61361;-78
2023/01/06 07:34:38;;;;;;;;;0.75;0.00;;;;;;;;5061200;28;62387;-79
2023/01/06 07:37:04;;;;;;;;;0.00;0.00;;;;;;;;5077219;28;61849;-75
2023/01/06 07:39:29;;;;;;;;;2.00;0.50;;;;;;;;5079134;27;61938;-77
2023/01/06 07:41:54;;;;;;;;;1.50;0.75;;;;;;;;5079735;28;62187;-78
2023/01/06 07:44:20;;;;;;;;;0.00;0.00;;;;;;;;5078772;28;61846;-78
2023/01/06 07:46:45;;;;;;;;;0.00;0.00;;;;;;;;5082163;28;62209;-77
2023/01/06 07:49:10;;;;;;;;;0.50;0.50;;;;;;;;5082855;27;62212;-79
2023/01/06 07:51:35;;;;;;;;;0.00;0.00;;;;;;;;5062761;28;61928;-78
2023/01/06 07:54:01;;;;;;;;;0.00;0.00;;;;;;;;5061962;28;61884;-79
2023/01/06 07:56:26;;;;;;;;;0.00;0.00;;;;;;;;5067995;28;61766;-79
2023/01/06 07:58:53;;;;;;;;;0.00;0.00;;;;;;;;5081870;28;62155;-78
2023/01/06 08:01:19;;;;;;;;;2.00;1.00;;;;;;;;5082124;28;61862;-78
2023/01/06 08:03:44;;;;;;;;;0.00;0.00;;;;;;;;5082616;28;61791;-78
2023/01/06 08:06:10;;;;;;;;;1.00;0.00;;;;;;;;5080792;28;62190;-80
2023/01/06 08:08:36;;;;;;;;;2.00;0.00;;;;;;;;5077084;28;61877;-80
2023/01/06 08:11:02;;;;;;;;;1.00;1.00;;;;;;;;5081831;27;61883;-80
2023/01/06 08:13:27;;;;;;;;;2.25;0.00;;;;;;;;5081938;27;61812;-80
2023/01/06 08:15:52;;;;;;;;;0.00;0.00;;;;;;;;5067130;28;61782;-80
2023/01/06 08:18:17;;;;;;;;;0.00;0.00;;;;;;;;5079291;28;61800;-81
2023/01/06 08:20:43;;;;;;;;;0.00;0.00;;;;;;;;5079023;28;62072;-80
2023/01/06 08:23:08;;;;;;;;;0.00;0.00;;;;;;;;5081638;28;61608;-79
2023/01/06 08:25:33;;;;;;;;;0.00;0.00;;;;;;;;5080920;28;61798;-80
2023/01/06 08:27:59;;;;;;;;;0.00;0.00;;;;;;;;5081370;27;61725;-80
2023/01/06 08:30:24;;;;;;;;;2.00;0.00;;;;;;;;5080251;28;61741;-81
2023/01/06 08:32:49;;;;;;;;;0.25;0.25;;;;;;;;5082079;27;61687;-81
2023/01/06 08:35:15;;;;;;;;;1.00;0.00;;;;;;;;5086019;27;62230;-80
2023/01/06 08:37:41;;;;;;;;;0.00;0.00;;;;;;;;5081745;27;62648;-78
2023/01/06 08:40:06;;;;;;;;;0.00;0.00;;;;;;;;5081659;28;61898;-82
2023/01/06 08:42:32;;;;;;;;;0.25;0.00;;;;;;;;5077443;28;62059;-80
2023/01/06 08:44:57;;;;;;;;;1.00;0.00;;;;;;;;5080293;28;62217;-81
2023/01/06 08:47:23;;;;;;;;;0.00;0.00;;;;;;;;5067680;28;63181;-83
2023/01/06 08:49:48;;;;;;;;;0.00;0.00;;;;;;;;5061386;28;61815;-82
2023/01/06 08:52:13;;;;;;;;;0.00;0.00;;;;;;;;5077521;28;61868;-82
2023/01/06 08:54:38;;;;;;;;;0.50;0.50;;;;;;;;5081548;28;61949;-82
2023/01/06 08:57:04;;;;;;;;;0.50;0.00;;;;;;;;5080541;28;63584;-80
2023/01/06 08:59:29;;;;;;;;;2.00;2.00;;;;;;;;5083851;28;61959;-80
2023/01/06 09:01:54;;;;;;;;;2.00;0.00;;;;;;;;5084906;28;62294;-80
2023/01/06 09:04:19;;;;;;;;;1.00;1.00;;;;;;;;5085980;28;62322;-79
2023/01/06 09:06:46;;;;;;;;;0.00;0.00;;;;;;;;5079545;28;63885;-77
2023/01/06 09:09:12;;;;;;;;;1.00;0.00;;;;;;;;5079649;28;61946;-81
2023/01/06 09:11:39;;;;;;;;;0.00;0.00;;;;;;;;5083271;27;62110;-82
2023/01/06 09:14:06;;;;;;;;;1.00;0.00;;;;;;;;5084293;27;61923;-80
2023/01/06 09:16:31;;;;;;;;;0.00;0.00;;;;;;;;5084322;28;62290;-81
2023/01/06 09:18:57;;;;;;;;;2.00;0.25;;;;;;;;5083307;28;61970;-81
2023/01/06 09:21:29;;;;;;;;;0.00;0.00;;;;;;;;5083658;28;61902;-80
2023/01/06 09:23:54;;;;;;;;;0.00;0.00;;;;;;;;5085246;27;61941;-81
2023/01/06 09:26:20;;;;;;;;;0.00;0.00;;;;;;;;5082528;28;63733;-80
2023/01/06 09:28:47;;;;;;;;;1.00;0.00;;;;;;;;5084419;28;61705;-81
2023/01/06 09:31:12;;;;;;;;;0.00;0.00;;;;;;;;5085047;28;61778;-81
2023/01/06 09:33:37;;;;;;;;;0.00;0.00;;;;;;;;5084871;28;61858;-81
2023/01/06 09:36:03;;;;;;;;;0.00;0.00;;;;;;;;5095434;27;61921;-80
2023/01/06 09:38:28;;;;;;;;;0.00;0.00;;;;;;;;5099258;27;61686;-77
2023/01/06 09:40:53;;;;;;;;;0.50;0.00;;;;;;;;5084505;27;61710;-77
2023/01/06 09:43:37;;;;;;;;;0.25;0.25;;;;;;;;5083357;28;61916;-80
2023/01/06 09:46:04;;;;;;;;;1.75;0.25;;;;;;;;5082996;28;61773;-80
2023/01/06 09:48:43;;;;;;;;;0.00;0.00;;;;;;;;5084163;28;62011;-80
2023/01/06 09:51:13;;;;;;;;;1.00;1.00;;;;;;;;5086193;27;61725;-80
2023/01/06 09:53:42;;;;;;;;;1.25;1.00;;;;;;;;5083489;28;61951;-79
2023/01/06 09:56:12;;;;;;;;;0.75;0.75;;;;;;;;5082465;28;63775;-82
2023/01/06 09:58:51;;;;;;;;;1.00;0.75;;;;;;;;5083471;28;61963;-79
2023/01/06 10:01:21;;;;;;;;;0.00;0.00;;;;;;;;5084590;28;62018;-81
2023/01/06 10:03:46;;;;;;;;;1.00;0.00;;;;;;;;5084217;28;61957;-80
2023/01/06 10:06:21;;;;;;;;;0.00;0.00;;;;;;;;5082789;28;61870;-80
2023/01/06 10:08:52;;;;;;;;;0.00;0.00;;;;;;;;5083460;28;61706;-81
2023/01/06 10:11:25;;;;;;;;;0.25;0.25;;;;;;;;5083809;27;61873;-78
2023/01/06 10:14:00;;;;;;;;;0.00;0.00;;;;;;;;5082595;28;61742;-78
2023/01/06 10:16:26;;;;;;;;;0.00;0.00;;;;;;;;5083854;28;61908;-77
2023/01/06 10:19:02;;;;;;;;;0.00;0.00;;;;;;;;5082158;28;62184;-76
2023/01/06 10:21:38;;;;;;;;;2.00;0.75;;;;;;;;5084103;28;61742;-76
2023/01/06 10:24:06;;;;;;;;;2.00;1.75;;;;;;;;5084013;27;61809;-79
2023/01/06 10:26:46;;;;;;;;;0.00;0.00;;;;;;;;5083448;28;61720;-80
2023/01/06 10:29:15;;;;;;;;;0.00;0.00;;;;;;;;5084062;28;61900;-81
2023/01/06 10:31:42;;;;;;;;;1.50;0.00;;;;;;;;5082249;28;61706;-80
2023/01/06 10:34:15;;;;;;;;;0.50;0.50;;;;;;;;5084142;28;61917;-81
2023/01/06 10:36:43;;;;;;;;;0.00;0.00;;;;;;;;5088879;27;62840;-79
2023/01/06 10:39:13;;;;;;;;;0.00;0.00;;;;;;;;5083025;28;61902;-79
2023/01/06 10:41:38;;;;;;;;;0.00;0.00;;;;;;;;5082138;28;62021;-78
2023/01/06 10:44:03;;;;;;;;;1.25;0.00;;;;;;;;5082316;28;62110;-81
2023/01/06 10:46:34;;;;;;;;;1.50;1.00;;;;;;;;5082867;28;61874;-76
2023/01/06 10:49:00;;;;;;;;;0.50;0.00;;;;;;;;5078922;28;61818;-76
2023/01/06 10:51:28;;;;;;;;;0.00;0.00;;;;;;;;5083646;28;61748;-79
2023/01/06 10:53:56;;;;;;;;;2.00;1.00;;;;;;;;5082991;28;61895;-78
2023/01/06 10:56:21;;;;;;;;;2.00;0.00;;;;;;;;5081514;28;64302;-79
2023/01/06 10:58:58;;;;;;;;;1.50;1.00;;;;;;;;5081142;28;61889;-79
2023/01/06 11:01:26;;;;;;;;;0.75;0.75;;;;;;;;5082236;28;61876;-79
2023/01/06 11:04:08;;;;;;;;;0.25;0.25;;;;;;;;5083216;27;62123;-79
2023/01/06 11:06:34;;;;;;;;;2.75;0.00;;;;;;;;5082494;28;63909;-78
2023/01/06 11:09:06;;;;;;;;;0.50;0.50;;;;;;;;5078087;28;61913;-81
2023/01/06 11:11:31;;;;;;;;;3.50;2.50;;;;;;;;5096598;27;61904;-81
2023/01/06 11:13:59;;;;;;;;;1.00;1.00;;;;;;;;5074264;28;61801;-78
2023/01/06 11:16:27;;;;;;;;;4.00;1.00;;;;;;;;5083057;28;62898;-79
2023/01/06 11:18:54;;;;;;;;;0.75;0.75;;;;;;;;5082707;28;61820;-77
2023/01/06 11:21:20;;;;;;;;;0.50;0.50;;;;;;;;5082699;28;61695;-79
2023/01/06 11:23:46;;;;;;;;;0.00;0.00;;;;;;;;5081424;28;61978;-78
2023/01/06 11:26:11;;;;;;;;;1.00;1.00;;;;;;;;5079996;28;63896;-78
2023/01/06 11:28:37;;;;;;;;;2.75;1.25;;;;;;;;5081065;28;62010;-78
2023/01/06 11:31:14;;;;;;;;;1.50;1.50;;;;;;;;5081966;28;61852;-76
2023/01/06 11:33:47;;;;;;;;;2.00;1.00;;;;;;;;5080324;27;61985;-76
2023/01/06 11:36:13;;;;;;;;;4.00;1.00;;;;;;;;5081153;27;61993;-77
2023/01/06 11:38:47;;;;;;;;;1.75;1.75;;;;;;;;5082503;28;61823;-76
2023/01/06 11:41:18;;;;;;;;;1.00;1.00;;;;;;;;5081865;28;61860;-75
2023/01/06 11:43:44;;;;;;;;;2.75;1.25;;;;;;;;5082617;27;61861;-76
2023/01/06 11:46:12;;;;;;;;;1.75;1.75;;;;;;;;5081604;28;61972;-77
2023/01/06 11:48:48;;;;;;;;;1.25;1.00;;;;;;;;5081142;28;61837;-74
2023/01/06 11:51:13;;;;;;;;;2.00;2.00;;;;;;;;5082021;28;61671;-76
2023/01/06 11:53:49;;;;;;;;;1.00;1.00;;;;;;;;5080821;28;61741;-76
2023/01/06 11:56:14;;;;;;;;;1.50;1.50;;;;;;;;5081766;27;61921;-76
2023/01/06 11:58:39;;;;;;;;;2.00;2.00;;;;;;;;5082577;27;61968;-76
2023/01/06 12:01:10;;;;;;;;;1.00;1.00;;;;;;;;5082418;28;61844;-76
2023/01/06 12:03:46;;;;;;;;;2.00;2.00;;;;;;;;5082661;27;61838;-76
2023/01/06 12:06:12;;;;;;;;;2.00;2.00;;;;;;;;5081116;27;61987;-76
2023/01/06 12:08:56;;;;;;;;;1.25;1.25;;;;;;;;5081410;28;61837;-76
2023/01/06 12:11:40;;;;;;;;;0.50;0.25;;;;;;;;5078184;28;61959;-76
2023/01/06 12:14:11;;;;;;;;;3.00;2.00;;;;;;;;5080031;28;62127;-77
2023/01/06 12:16:46;;;;;;;;;3.00;3.00;;;;;;;;5081567;28;62901;-77
2023/01/06 12:19:30;;;;;;;;;5.75;4.50;;;;;;;;5075106;28;62096;-77
2023/01/06 12:21:56;;;;;;;;;2.00;2.00;;;;;;;;5079437;28;62070;-76
2023/01/06 12:24:22;;;;;;;;;1.75;1.75;;;;;;;;5081635;28;61828;-76
2023/01/06 12:26:48;;;;;;;;;1.50;1.50;;;;;;;;5078501;28;63803;-76
2023/01/06 12:29:18;;;;;;;;;3.00;2.00;;;;;;;;5080535;28;61821;-75
2023/01/06 12:32:02;;;;;;;;;3.00;2.00;;;;;;;;5081272;28;62111;-75
2023/01/06 12:34:41;;;;;;;;;4.00;2.00;;;;;;;;5083027;27;61757;-75
2023/01/06 12:37:16;;;;;;;;;3.00;2.00;;;;;;;;5082658;27;62637;-75
2023/01/06 12:40:08;;;;;;;;;3.50;2.25;;;;;;;;5083719;28;62190;-75
2023/01/06 12:42:36;;;;;;;;;1.25;1.25;;;;;;;;5085475;28;61770;-75
2023/01/06 12:45:09;;;;;;;;;1.25;1.25;;;;;;;;5085438;28;63017;-76
2023/01/06 12:47:42;;;;;;;;;2.00;2.00;;;;;;;;5083261;28;62953;-75
2023/01/06 12:50:07;;;;;;;;;1.50;1.50;;;;;;;;5092852;27;61707;-78
2023/01/06 12:52:54;;;;;;;;;2.00;2.00;;;;;;;;5102278;27;61920;-77
2023/01/06 12:55:39;;;;;;;;;1.00;1.00;;;;;;;;5097354;27;62034;-79
2023/01/06 12:58:08;;;;;;;;;2.50;2.25;;;;;;;;5089799;27;61770;-79
2023/01/06 13:00:46;;;;;;;;;1.25;1.00;;;;;;;;5094782;27;62054;-78
2023/01/06 13:03:18;;;;;;;;;2.00;2.00;;;;;;;;5096970;27;62161;-77
2023/01/06 13:05:56;;;;;;;;;3.00;2.00;;;;;;;;5102437;27;62131;-78
2023/01/06 13:08:34;;;;;;;;;2.75;1.50;;;;;;;;5084486;27;63507;-78
2023/01/06 13:11:06;;;;;;;;;2.25;1.50;;;;;;;;5085453;27;61973;-78
2023/01/06 13:13:39;;;;;;;;;2.50;2.50;;;;;;;;5083438;27;62207;-78
2023/01/06 13:16:17;;;;;;;;;2.00;1.75;;;;;;;;5090163;27;61813;-79
2023/01/06 13:18:56;;;;;;;;;3.25;1.00;;;;;;;;5093252;27;64378;-79
2023/01/06 13:21:26;;;;;;;;;2.75;2.00;;;;;;;;5098509;27;61243;-77
2023/01/06 13:23:58;;;;;;;;;1.00;1.00;;;;;;;;5094605;27;61725;-78
2023/01/06 13:26:32;;;;;;;;;1.00;1.00;;;;;;;;5095092;27;62019;-77
2023/01/06 13:29:01;;;;;;;;;2.00;1.00;;;;;;;;5095964;27;62973;-78
2023/01/06 13:31:45;;;;;;;;;4.00;3.00;;;;;;;;5092011;27;61925;-78
2023/01/06 13:34:20;;;;;;;;;1.00;1.00;;;;;;;;5089501;27;61644;-78
2023/01/06 13:37:04;;;;;;;;;1.75;1.75;;;;;;;;5086131;27;61938;-78
2023/01/06 13:39:32;;;;;;;;;0.50;0.00;;;;;;;;5086101;27;64029;-78
2023/01/06 13:41:59;;;;;;;;;3.00;1.00;;;;;;;;5086308;27;61888;-78
2023/01/06 13:44:30;;;;;;;;;1.50;1.50;;;;;;;;5087604;27;62249;-78
2023/01/06 13:47:03;;;;;;;;;1.50;1.00;;;;;;;;5080272;28;62112;-79
2023/01/06 13:49:30;;;;;;;;;1.00;1.00;;;;;;;;5082749;27;63353;-77
2023/01/06 13:51:56;;;;;;;;;0.75;0.75;;;;;;;;5087375;27;61784;-80
2023/01/06 13:54:39;;;;;;;;;1.50;1.50;;;;;;;;5085802;28;62170;-80
2023/01/06 13:57:20;;;;;;;;;1.25;1.25;;;;;;;;5086390;28;62118;-78
2023/01/06 13:59:49;;;;;;;;;0.25;0.25;;;;;;;;5086488;28;63510;-77
2023/01/06 14:02:30;;;;;;;;;1.75;1.75;;;;;;;;5088626;28;61803;-80
2023/01/06 14:04:56;;;;;;;;;2.00;1.25;;;;;;;;5091328;28;61820;-80
2023/01/06 14:07:32;;;;;;;;;1.00;1.00;;;;;;;;5090770;28;61284;-80
2023/01/06 14:09:59;;;;;;;;;1.00;1.00;;;;;;;;5070798;27;61759;-79
2023/01/06 14:12:24;;;;;;;;;2.00;1.00;;;;;;;;5071756;28;61847;-80
2023/01/06 14:14:57;;;;;;;;;1.00;1.00;;;;;;;;5074461;28;61217;-80
2023/01/06 14:17:46;;;;;;;;;1.00;1.00;;;;;;;;5072396;28;61742;-79
2023/01/06 14:20:44;;;;;;;;;2.00;1.00;;;;;;;;5069770;28;61819;-79
2023/01/06 14:23:12;;;;;;;;;1.00;1.00;;;;;;;;5047399;28;61256;-80
2023/01/06 14:25:38;;;;;;;;;2.00;2.00;;;;;;;;5027816;28;61847;-81
2023/01/06 14:28:05;;;;;;;;;1.00;1.00;;;;;;;;5049081;28;61787;-80
2023/01/06 14:30:34;;;;;;;;;1.50;1.50;;;;;;;;5027408;28;63512;-79
2023/01/06 14:33:24;;;;;;;;;2.00;1.00;;;;;;;;5025883;28;62495;-79
2023/01/06 14:35:52;;;;;;;;;1.00;1.00;;;;;;;;5038346;28;61916;-78
2023/01/06 14:38:19;;;;;;;;;2.25;1.00;;;;;;;;5039236;28;62002;-78
2023/01/06 14:40:54;;;;;;;;;1.50;0.00;;;;;;;;5022090;28;63730;-78
2023/01/06 14:43:41;;;;;;;;;0.25;0.25;;;;;;;;5040278;28;61912;-77
2023/01/06 14:46:18;;;;;;;;;2.00;0.25;;;;;;;;5024066;28;62040;-78
2023/01/06 14:48:47;;;;;;;;;1.00;1.00;;;;;;;;5023821;28;61803;-76
2023/01/06 14:51:15;;;;;;;;;1.00;1.00;;;;;;;;5023535;28;63777;-79
2023/01/06 14:53:42;;;;;;;;;1.25;1.00;;;;;;;;5023863;28;61757;-80
2023/01/06 14:56:16;;;;;;;;;1.00;1.00;;;;;;;;5039597;28;61911;-80
2023/01/06 14:58:41;;;;;;;;;3.00;3.00;;;;;;;;5052555;28;61932;-79